Lakefield, Canada
Current Conditions -  °F | °C
As of 5:00 PM on Friday 19 Dec 2014 (Local Time) from CYPQ Reporting Station
Overcast Overcast  
Wind Chill: -8°   Ceiling: 8000
Heat Index: -5°   Visibility: 9mi
Dew Point: -8°   Wind: 5mph
Humidity: 80%   Direction: 300°WNW
Pressure: 30.19"   Gusts: NA
Location:  44.43°N, 78.27°W
Report Text: CYPQ 192200Z AUTO 30004KT 9SM OVC080 M05/M08 A3019 RMK SLP235
Loading
Personal Weather Stations






























Interactive Weather Map New forecast layout! Learn more

10-Day Weather Forecast

Advertisements
Track Severe Weather on mobile